Time;durP1;ratioP1;P1;durP2;ratioP2;P2;SDS_P1;SDS_P2;PMS_P1;PMS_P2;Temp;Humidity;BMP_temperature;BMP_pressure;BME280_temperature;BME280_humidity;BME280_pressure;Samples;Min_cycle;Max_cycle;Signal;HPM_P1;HPM_P2
2022/05/13 00:01:08;;;;;;;1.93;1.70;;;17.90;98.00;;;;;;5032884;28;20454;-64
2022/05/13 00:03:37;;;;;;;2.40;1.90;;;17.90;98.00;;;;;;5032740;28;20467;-64
2022/05/13 00:06:04;;;;;;;3.00;1.90;;;18.00;98.00;;;;;;5032804;28;20461;-64
2022/05/13 00:08:33;;;;;;;2.33;1.80;;;18.20;98.00;;;;;;5032854;28;20835;-64
2022/05/13 00:11:03;;;;;;;2.50;1.73;;;18.30;98.00;;;;;;5032633;28;20451;-64
2022/05/13 00:13:30;;;;;;;2.97;2.17;;;18.30;98.00;;;;;;5032628;28;20463;-64
2022/05/13 00:15:59;;;;;;;2.83;2.03;;;18.30;98.00;;;;;;5032539;28;20482;-65
2022/05/13 00:18:29;;;;;;;2.97;2.30;;;18.30;98.00;;;;;;5031594;28;20936;-64
2022/05/13 00:20:58;;;;;;;2.83;2.27;;;18.30;98.00;;;;;;5032819;28;20447;-64
2022/05/13 00:23:25;;;;;;;3.70;2.50;;;18.30;98.00;;;;;;5032471;28;20483;-64
2022/05/13 00:25:53;;;;;;;4.30;2.40;;;18.10;98.00;;;;;;5032474;28;20458;-64
2022/05/13 00:28:21;;;;;;;3.30;2.23;;;18.00;98.00;;;;;;5032426;28;20462;-64
2022/05/13 00:30:49;;;;;;;2.47;1.80;;;17.90;98.00;;;;;;5032542;28;20458;-64
2022/05/13 00:33:17;;;;;;;3.03;2.03;;;18.00;98.00;;;;;;5032501;28;20827;-65
2022/05/13 00:35:45;;;;;;;2.90;1.80;;;18.00;98.00;;;;;;5032142;28;20975;-65
2022/05/13 00:38:13;;;;;;;2.60;1.90;;;17.90;98.00;;;;;;5032238;28;20461;-64
2022/05/13 00:40:41;;;;;;;2.10;2.00;;;18.10;98.00;;;;;;5031016;28;20471;-65
2022/05/13 00:43:10;;;;;;;2.80;1.97;;;18.20;98.00;;;;;;5032010;28;20849;-64
2022/05/13 00:45:39;;;;;;;2.23;1.90;;;18.10;98.00;;;;;;5032016;28;20952;-64
2022/05/13 00:48:08;;;;;;;2.43;1.87;;;18.00;98.00;;;;;;5032219;28;20458;-65
2022/05/13 00:50:38;;;;;;;3.33;2.33;;;17.90;98.00;;;;;;5031877;28;20849;-64
2022/05/13 00:53:06;;;;;;;2.83;1.80;;;17.80;98.00;;;;;;5031974;28;20470;-64
2022/05/13 00:55:36;;;;;;;2.30;1.80;;;17.80;98.00;;;;;;5031938;28;20490;-64
2022/05/13 00:58:10;;;;;;;3.63;2.20;;;17.80;98.00;;;;;;5031980;28;20971;-65
2022/05/13 01:00:38;;;;;;;3.23;2.07;;;17.90;98.00;;;;;;5032070;28;20463;-65
2022/05/13 01:03:06;;;;;;;2.90;2.30;;;18.00;98.00;;;;;;5032105;28;20998;-64
2022/05/13 01:05:36;;;;;;;4.67;2.70;;;18.10;98.00;;;;;;5031893;28;20455;-65
2022/05/13 01:08:06;;;;;;;4.17;2.40;;;18.20;98.00;;;;;;5031006;28;20896;-65
2022/05/13 01:10:35;;;;;;;3.67;2.30;;;18.30;98.00;;;;;;5031767;28;20485;-64
2022/05/13 01:13:07;;;;;;;3.30;1.83;;;18.20;98.00;;;;;;5032019;28;21287;-65
2022/05/13 01:15:41;;;;;;;2.67;1.73;;;18.10;98.00;;;;;;5031830;28;20472;-64
2022/05/13 01:18:08;;;;;;;2.43;2.23;;;18.20;98.00;;;;;;5031919;28;20527;-65
2022/05/13 01:20:38;;;;;;;5.50;2.17;;;18.20;98.00;;;;;;5031861;28;20475;-65
2022/05/13 01:23:10;;;;;;;3.20;2.20;;;18.10;98.00;;;;;;5031937;28;20462;-64
2022/05/13 01:25:43;;;;;;;2.80;2.03;;;18.00;98.00;;;;;;5031825;28;20455;-65
2022/05/13 01:28:12;;;;;;;2.70;1.97;;;18.00;98.00;;;;;;5032067;28;20463;-64
2022/05/13 01:30:43;;;;;;;2.80;1.83;;;17.90;98.00;;;;;;5034416;28;20850;-65
2022/05/13 01:33:11;;;;;;;3.23;2.30;;;17.90;98.00;;;;;;5035983;28;20580;-66
2022/05/13 01:35:41;;;;;;;2.37;1.93;;;18.00;98.00;;;;;;5034993;28;20508;-66
2022/05/13 01:38:11;;;;;;;3.67;2.50;;;17.90;98.00;;;;;;5035257;28;20454;-66
2022/05/13 01:40:40;;;;;;;3.83;2.67;;;17.90;98.00;;;;;;5035398;28;20458;-65
2022/05/13 01:43:07;;;;;;;3.27;2.10;;;18.00;98.00;;;;;;5035539;28;20477;-66
2022/05/13 01:45:35;;;;;;;2.27;1.87;;;17.90;98.00;;;;;;5035212;28;20982;-65
2022/05/13 01:48:04;;;;;;;4.83;2.77;;;17.90;98.00;;;;;;5035425;28;20462;-65
2022/05/13 01:50:31;;;;;;;4.63;2.67;;;17.90;98.00;;;;;;5035014;28;20458;-66
2022/05/13 01:52:58;;;;;;;3.50;1.80;;;17.80;98.00;;;;;;5035395;28;20451;-65
2022/05/13 01:55:27;;;;;;;3.10;2.30;;;17.90;98.00;;;;;;5035131;28;20459;-65
2022/05/13 01:57:54;;;;;;;9.03;2.57;;;18.10;98.00;;;;;;5035049;28;20505;-65
2022/05/13 02:00:23;;;;;;;2.67;2.17;;;18.00;98.00;;;;;;5035090;28;20450;-66
2022/05/13 02:05:34;;;;;;;2.80;2.33;;;17.90;98.00;;;;;;5035091;28;21067;-66
2022/05/13 02:08:02;;;;;;;3.83;1.93;;;17.80;98.00;;;;;;5033878;28;20462;-66
2022/05/13 02:10:31;;;;;;;4.73;2.50;;;17.80;98.00;;;;;;5034931;28;20462;-65
2022/05/13 02:13:01;;;;;;;3.20;2.07;;;17.70;98.00;;;;;;5035139;28;20454;-66
2022/05/13 02:15:28;;;;;;;2.93;2.43;;;17.70;98.00;;;;;;5034858;28;20459;-66
2022/05/13 02:17:55;;;;;;;3.03;2.20;;;17.80;98.00;;;;;;5034914;28;20482;-66
2022/05/13 02:20:22;;;;;;;3.27;2.70;;;17.80;98.00;;;;;;5034877;28;20477;-66
2022/05/13 02:22:50;;;;;;;1.90;1.57;;;17.80;98.00;;;;;;5034873;28;20465;-65
2022/05/13 02:25:17;;;;;;;3.23;2.00;;;17.70;98.00;;;;;;5034556;28;20944;-65
2022/05/13 02:27:48;;;;;;;3.50;2.63;;;17.70;98.00;;;;;;5034986;28;20462;-65
2022/05/13 02:30:16;;;;;;;6.30;2.87;;;17.80;98.00;;;;;;5034717;28;20459;-66
2022/05/13 02:32:43;;;;;;;1.80;1.70;;;17.70;98.00;;;;;;5035119;28;20544;-65
2022/05/13 02:35:13;;;;;;;3.43;2.20;;;17.60;98.00;;;;;;5034753;28;20461;-65
2022/05/13 02:37:40;;;;;;;3.00;2.33;;;17.50;98.00;;;;;;5034278;28;20486;-65
2022/05/13 02:40:09;;;;;;;3.30;2.40;;;17.60;98.00;;;;;;5034471;28;20788;-66
2022/05/13 02:42:37;;;;;;;4.37;2.13;;;17.60;98.00;;;;;;5033244;28;20451;-65
2022/05/13 02:45:11;;;;;;;2.57;2.20;;;17.60;98.00;;;;;;5034128;28;20447;-65
2022/05/13 02:47:38;;;;;;;1.80;1.73;;;17.60;98.00;;;;;;5034200;28;20516;-65
2022/05/13 02:50:19;;;;;;;3.17;2.10;;;17.70;98.00;;;;;;5034015;28;20881;-66
2022/05/13 02:52:47;;;;;;;2.20;2.00;;;17.70;98.00;;;;;;5034196;28;20461;-65
2022/05/13 02:55:15;;;;;;;3.40;2.10;;;17.70;98.00;;;;;;5032715;28;20470;-65
2022/05/13 02:57:43;;;;;;;2.33;1.90;;;17.60;98.00;;;;;;5032848;28;20490;-65
2022/05/13 03:00:13;;;;;;;2.53;1.93;;;17.50;98.00;;;;;;5034011;28;20458;-65
2022/05/13 03:02:43;;;;;;;2.33;1.97;;;17.40;98.00;;;;;;5033936;28;20462;-65
2022/05/13 03:05:11;;;;;;;4.60;2.33;;;17.40;98.00;;;;;;5034038;28;20464;-66
2022/05/13 03:07:39;;;;;;;2.23;1.53;;;17.50;98.00;;;;;;5033867;28;20823;-65
2022/05/13 03:10:08;;;;;;;1.90;1.60;;;17.60;98.00;;;;;;5034170;28;20458;-65
2022/05/13 03:12:35;;;;;;;2.00;1.90;;;17.60;98.00;;;;;;5033678;28;20538;-66
2022/05/13 03:15:02;;;;;;;1.83;1.33;;;17.50;98.00;;;;;;5034100;28;20797;-66
2022/05/13 03:17:30;;;;;;;1.70;1.60;;;17.50;98.00;;;;;;5033317;28;20830;-66
2022/05/13 03:19:58;;;;;;;2.80;2.20;;;17.50;98.00;;;;;;5034036;28;20520;-65
2022/05/13 03:22:25;;;;;;;2.20;1.73;;;17.40;98.00;;;;;;5033646;28;20593;-66
2022/05/13 03:24:52;;;;;;;2.03;1.67;;;17.40;98.00;;;;;;5033771;28;20462;-66
2022/05/13 03:27:19;;;;;;;3.53;2.07;;;17.30;98.00;;;;;;5033560;28;20596;-66
2022/05/13 03:29:55;;;;;;;1.90;1.60;;;17.30;98.00;;;;;;5033646;28;20461;-66
2022/05/13 03:32:22;;;;;;;2.43;1.80;;;17.40;98.00;;;;;;5033406;28;20984;-66
2022/05/13 03:34:51;;;;;;;1.77;1.73;;;17.40;98.00;;;;;;5033305;28;20512;-65
2022/05/13 03:37:18;;;;;;;2.13;1.67;;;17.40;98.00;;;;;;5033165;28;20474;-65
2022/05/13 03:39:45;;;;;;;2.70;1.60;;;17.30;98.00;;;;;;5033138;28;20462;-66
2022/05/13 03:42:12;;;;;;;2.33;1.43;;;17.30;98.00;;;;;;5033227;28;20552;-65
2022/05/13 03:44:39;;;;;;;1.40;1.33;;;17.20;98.00;;;;;;5033013;28;20971;-65
2022/05/13 03:47:07;;;;;;;2.83;1.70;;;17.10;98.00;;;;;;5033123;28;20455;-65
2022/05/13 03:49:34;;;;;;;1.60;1.47;;;16.90;98.00;;;;;;5033034;28;20455;-66
2022/05/13 03:52:02;;;;;;;2.53;1.90;;;16.80;98.00;;;;;;5032883;28;20458;-66
2022/05/13 03:54:29;;;;;;;2.07;1.73;;;16.70;98.00;;;;;;5033048;28;20458;-65
2022/05/13 03:56:56;;;;;;;1.67;1.60;;;16.80;98.00;;;;;;5032771;28;20564;-65
2022/05/13 03:59:26;;;;;;;1.70;1.33;;;16.80;98.00;;;;;;5032985;28;20458;-65
2022/05/13 04:01:54;;;;;;;1.60;1.50;;;16.70;98.00;;;;;;5032656;28;20486;-66
2022/05/13 04:04:22;;;;;;;1.40;1.33;;;16.70;98.00;;;;;;5032896;28;20462;-66
2022/05/13 04:09:35;;;;;;;2.03;1.80;;;16.80;98.00;;;;;;5032495;28;20570;-65
2022/05/13 04:17:28;;;;;;;3.63;2.17;;;17.00;98.00;;;;;;5032847;28;20556;-65
2022/05/13 04:19:56;;;;;;;2.33;1.80;;;17.00;98.00;;;;;;5032680;28;20459;-66
2022/05/13 04:22:24;;;;;;;1.80;1.43;;;17.00;98.00;;;;;;5032592;28;20534;-65
2022/05/13 04:24:53;;;;;;;1.73;1.67;;;16.80;98.00;;;;;;5032842;28;20554;-66
2022/05/13 04:27:20;;;;;;;4.43;1.67;;;16.80;98.00;;;;;;5032481;28;21018;-65
2022/05/13 04:29:47;;;;;;;1.37;1.27;;;16.70;98.00;;;;;;5032560;28;20495;-66
2022/05/13 04:32:16;;;;;;;2.03;1.60;;;16.70;98.00;;;;;;5032929;28;20936;-66
2022/05/13 04:34:43;;;;;;;1.80;1.70;;;16.80;98.00;;;;;;5032332;28;20814;-65
2022/05/13 04:37:10;;;;;;;4.20;2.77;;;16.70;98.00;;;;;;5032356;28;20506;-65
2022/05/13 04:39:37;;;;;;;1.87;1.40;;;16.70;98.00;;;;;;5032061;28;20534;-65
2022/05/13 04:44:52;;;;;;;2.37;1.50;;;16.80;98.00;;;;;;5032128;28;20442;-66
2022/05/13 04:50:05;;;;;;;1.73;1.50;;;17.00;98.00;;;;;;5032232;28;20552;-65
2022/05/13 04:52:32;;;;;;;2.23;1.60;;;17.10;98.00;;;;;;5031975;28;20549;-66
2022/05/13 04:55:00;;;;;;;2.30;1.60;;;17.10;98.00;;;;;;5032200;28;20911;-65
2022/05/13 04:57:28;;;;;;;2.97;1.90;;;17.30;98.00;;;;;;5030480;28;20995;-66
2022/05/13 04:59:56;;;;;;;3.13;2.13;;;17.20;98.00;;;;;;5031951;28;20447;-66
2022/05/13 05:02:23;;;;;;;2.30;1.60;;;17.20;98.00;;;;;;5031869;28;20459;-66
2022/05/13 05:04:50;;;;;;;2.00;1.60;;;17.30;98.00;;;;;;5031347;28;20459;-66
2022/05/13 05:07:17;;;;;;;2.30;1.60;;;17.30;98.00;;;;;;5031858;28;20968;-65
2022/05/13 05:09:44;;;;;;;3.17;2.00;;;17.30;98.00;;;;;;5032082;28;20812;-65
2022/05/13 05:12:11;;;;;;;3.53;1.80;;;17.30;98.00;;;;;;5031780;28;20450;-65
2022/05/13 05:14:40;;;;;;;1.90;1.80;;;17.30;98.00;;;;;;5032057;28;20509;-65
2022/05/13 05:17:14;;;;;;;2.43;1.73;;;17.30;98.00;;;;;;5031905;28;20489;-65
2022/05/13 05:19:41;;;;;;;1.63;1.60;;;17.30;98.00;;;;;;5032088;28;20783;-66
2022/05/13 05:22:08;;;;;;;2.03;1.63;;;17.20;98.00;;;;;;5031815;28;20463;-65
2022/05/13 05:24:35;;;;;;;3.10;1.93;;;17.30;98.00;;;;;;5031897;28;20816;-65
2022/05/13 05:27:02;;;;;;;2.27;1.67;;;17.20;98.00;;;;;;5031861;28;20459;-65
2022/05/13 05:29:29;;;;;;;2.27;2.00;;;17.30;98.00;;;;;;5031871;28;20528;-65
2022/05/13 05:31:58;;;;;;;4.50;1.70;;;17.30;98.00;;;;;;5032215;28;20470;-66
2022/05/13 05:34:25;;;;;;;2.37;1.80;;;17.40;98.00;;;;;;5031815;28;20466;-65
2022/05/13 05:36:52;;;;;;;3.17;1.90;;;17.50;98.00;;;;;;5031672;28;20978;-65
2022/05/13 05:39:19;;;;;;;2.40;2.03;;;17.40;98.00;;;;;;5031736;28;20454;-65
2022/05/13 05:41:46;;;;;;;2.40;1.93;;;17.30;98.00;;;;;;5032051;28;20481;-65
2022/05/13 05:44:13;;;;;;;1.50;1.43;;;17.10;98.00;;;;;;5031781;28;20450;-65
2022/05/13 05:46:40;;;;;;;1.80;1.77;;;17.00;98.00;;;;;;5031497;28;20451;-65
2022/05/13 05:49:09;;;;;;;1.90;1.70;;;17.00;98.00;;;;;;5031689;28;20854;-66
2022/05/13 05:51:36;;;;;;;2.20;1.63;;;17.00;98.00;;;;;;5031302;28;20483;-65
2022/05/13 05:59:41;;;;;;;1.90;1.50;;;17.10;98.00;;;;;;5030300;28;20466;-62
2022/05/13 06:02:08;;;;;;;1.50;1.40;;;17.10;98.00;;;;;;5031614;28;20462;-62
2022/05/13 06:04:37;;;;;;;2.33;1.87;;;17.00;98.00;;;;;;5031495;28;20462;-62
2022/05/13 06:07:05;;;;;;;2.90;1.70;;;17.00;98.00;;;;;;5031295;28;20550;-62
2022/05/13 06:09:32;;;;;;;4.60;2.50;;;17.10;98.00;;;;;;5031180;28;20466;-62
2022/05/13 06:12:00;;;;;;;2.27;2.07;;;17.30;98.00;;;;;;5031399;28;20458;-62
2022/05/13 06:14:27;;;;;;;2.43;2.10;;;17.30;98.00;;;;;;5031295;28;21076;-62
2022/05/13 06:16:55;;;;;;;2.33;1.70;;;17.40;98.00;;;;;;5032562;28;20486;-62
2022/05/13 06:19:22;;;;;;;3.43;1.77;;;17.30;98.00;;;;;;5034812;28;20463;-62
2022/05/13 06:21:51;;;;;;;1.77;1.70;;;17.50;98.00;;;;;;5034887;28;20458;-62
2022/05/13 06:24:19;;;;;;;1.60;1.37;;;17.50;98.00;;;;;;5034607;28;21111;-62
2022/05/13 06:26:48;;;;;;;2.27;2.10;;;17.40;98.00;;;;;;5035125;28;20455;-62
2022/05/13 06:29:15;;;;;;;1.90;1.80;;;17.40;98.00;;;;;;5034857;28;20450;-62
2022/05/13 06:31:43;;;;;;;5.73;2.20;;;17.40;98.00;;;;;;5035245;28;20837;-62
2022/05/13 06:34:11;;;;;;;2.97;2.00;;;17.40;98.00;;;;;;5035100;28;20874;-62
2022/05/13 06:36:39;;;;;;;2.30;1.93;;;17.40;98.00;;;;;;5034537;28;20473;-62
2022/05/13 06:39:08;;;;;;;1.93;1.83;;;17.40;98.00;;;;;;5034405;28;20553;-62
2022/05/13 06:41:37;;;;;;;2.47;1.80;;;17.40;98.00;;;;;;5034669;28;20520;-62
2022/05/13 06:44:05;;;;;;;2.33;1.80;;;17.40;98.00;;;;;;5034204;28;20504;-62
2022/05/13 06:46:35;;;;;;;2.17;2.03;;;17.40;98.00;;;;;;5033508;28;20455;-62
2022/05/13 06:49:04;;;;;;;11.20;1.70;;;17.30;98.00;;;;;;5034213;28;21119;-62
2022/05/13 06:51:31;;;;;;;1.90;1.50;;;17.40;98.00;;;;;;5034206;28;20796;-62
2022/05/13 06:54:03;;;;;;;2.03;1.70;;;17.50;98.00;;;;;;5030747;28;20889;-62
2022/05/13 06:56:37;;;;;;;2.33;1.73;;;17.70;98.00;;;;;;5031220;28;20458;-62
2022/05/13 06:59:05;;;;;;;1.83;1.80;;;17.90;98.00;;;;;;5030965;28;20585;-62
2022/05/13 07:01:32;;;;;;;3.00;2.10;;;18.00;98.00;;;;;;5046693;28;20466;-62
2022/05/13 07:03:59;;;;;;;4.70;2.57;;;18.20;98.00;;;;;;5031479;28;20471;-62
2022/05/13 07:06:26;;;;;;;1.90;1.80;;;18.30;98.00;;;;;;5031378;28;20473;-62
2022/05/13 07:08:53;;;;;;;2.53;1.90;;;18.40;98.00;;;;;;5031231;28;20474;-62
2022/05/13 07:11:21;;;;;;;2.93;2.20;;;18.40;98.00;;;;;;5030590;28;20949;-62
2022/05/13 07:13:50;;;;;;;10.07;2.80;;;18.50;98.00;;;;;;5031259;28;21476;-62
2022/05/13 07:16:17;;;;;;;2.07;1.60;;;18.40;98.00;;;;;;5030859;28;20481;-62
2022/05/13 07:18:46;;;;;;;2.80;1.90;;;18.40;98.00;;;;;;5031223;28;20499;-62
2022/05/13 07:21:14;;;;;;;2.17;1.97;;;18.20;98.00;;;;;;5031183;28;20462;-62
2022/05/13 07:23:41;;;;;;;8.43;2.47;;;18.20;98.00;;;;;;5031020;28;20562;-62
2022/05/13 07:26:12;;;;;;;1.90;1.60;;;18.10;98.00;;;;;;5031345;28;20462;-62
2022/05/13 07:28:39;;;;;;;2.00;1.90;;;18.00;98.00;;;;;;5030373;28;20677;-62
2022/05/13 07:31:08;;;;;;;3.77;2.10;;;18.00;98.00;;;;;;5031253;28;20501;-62
2022/05/13 07:33:36;;;;;;;2.43;1.70;;;18.00;98.00;;;;;;5030793;28;20470;-63
2022/05/13 07:36:04;;;;;;;2.83;1.63;;;18.00;98.00;;;;;;5030921;28;20471;-63
2022/05/13 07:38:32;;;;;;;2.00;1.50;;;18.40;98.00;;;;;;5030672;28;20494;-62
2022/05/13 07:41:16;;;;;;;2.67;1.73;;;18.70;98.00;;;;;;5031466;28;20953;-62
2022/05/13 07:43:44;;;;;;;2.37;1.93;;;19.10;98.00;;;;;;5032735;28;20463;-62
2022/05/13 07:46:13;;;;;;;2.17;1.60;;;19.40;98.00;;;;;;5047746;28;20961;-62
2022/05/13 07:48:41;;;;;;;6.50;2.70;;;19.40;98.00;;;;;;5032082;28;20486;-62
2022/05/13 07:51:12;;;;;;;1.70;1.60;;;19.20;98.00;;;;;;5047279;28;20458;-62
2022/05/13 07:53:39;;;;;;;3.00;2.33;;;18.90;98.00;;;;;;5032867;28;20462;-62
2022/05/13 07:56:08;;;;;;;3.20;1.90;;;18.70;98.00;;;;;;5033057;28;20512;-62
2022/05/13 07:58:35;;;;;;;3.17;2.03;;;18.60;98.00;;;;;;5032855;28;20531;-62
2022/05/13 08:01:03;;;;;;;3.43;2.10;;;18.50;98.00;;;;;;5032790;28;20455;-62
2022/05/13 08:03:31;;;;;;;1.70;1.67;;;18.60;98.00;;;;;;5032907;28;20485;-62
2022/05/13 08:06:03;;;;;;;2.47;1.83;;;18.60;98.00;;;;;;5032725;28;20549;-62
2022/05/13 08:08:35;;;;;;;2.80;1.70;;;18.70;98.00;;;;;;5032623;28;20512;-62
2022/05/13 08:11:05;;;;;;;4.17;1.90;;;18.70;98.00;;;;;;5032736;28;20465;-62
2022/05/13 08:13:34;;;;;;;2.03;1.80;;;18.70;98.00;;;;;;5032449;28;20540;-62
2022/05/13 08:16:02;;;;;;;2.23;1.77;;;18.60;98.00;;;;;;5032537;28;20450;-62
2022/05/13 08:18:31;;;;;;;3.07;1.73;;;18.50;98.00;;;;;;5032311;28;20483;-62
2022/05/13 08:20:59;;;;;;;2.17;1.50;;;18.50;98.00;;;;;;5032723;28;20459;-62
2022/05/13 08:23:26;;;;;;;2.67;2.17;;;18.70;98.00;;;;;;5032909;28;20454;-62
2022/05/13 08:25:53;;;;;;;1.80;1.63;;;18.90;98.00;;;;;;5032728;28;20458;-62
2022/05/13 08:28:22;;;;;;;3.00;2.00;;;19.00;98.00;;;;;;5031154;28;20462;-62
2022/05/13 08:30:50;;;;;;;5.47;1.80;;;19.10;98.00;;;;;;5032369;28;20467;-62
2022/05/13 08:33:18;;;;;;;2.90;2.03;;;19.20;98.00;;;;;;5032389;28;20466;-62
2022/05/13 08:35:50;;;;;;;2.20;1.70;;;19.20;98.00;;;;;;5031831;28;20458;-63
2022/05/13 08:38:22;;;;;;;2.57;1.77;;;19.10;98.00;;;;;;5032304;28;20577;-62
2022/05/13 08:41:18;;;;;;;1.63;1.57;;;19.10;98.00;;;;;;5031718;28;20454;-62
2022/05/13 08:43:50;;;;;;;2.13;1.77;;;19.40;98.00;;;;;;5017373;28;21018;-62
2022/05/13 08:46:28;;;;;;;1.73;1.60;;;19.40;98.00;;;;;;5018929;28;20943;-62
2022/05/13 08:49:00;;;;;;;1.90;1.80;;;19.40;98.00;;;;;;5018607;28;20513;-62
2022/05/13 08:51:50;;;;;;;2.90;1.90;;;19.40;98.00;;;;;;5019521;28;20452;-62
2022/05/13 08:54:18;;;;;;;3.20;2.00;;;19.30;98.00;;;;;;5021579;28;20530;-62
2022/05/13 08:56:50;;;;;;;2.33;1.80;;;19.40;98.00;;;;;;5203306;23;20487;-62
2022/05/13 08:59:21;;;;;;;2.03;1.73;;;19.30;98.00;;;;;;5009952;28;20526;-62
2022/05/13 09:01:54;;;;;;;3.77;2.00;;;19.40;98.00;;;;;;5010246;28;20499;-62
2022/05/13 09:04:32;;;;;;;3.50;1.80;;;19.60;98.00;;;;;;5010919;28;20574;-62
2022/05/13 09:07:03;;;;;;;2.90;1.70;;;19.70;98.00;;;;;;5011405;28;20521;-61
2022/05/13 09:09:31;;;;;;;1.70;1.60;;;19.70;98.00;;;;;;5011327;28;20950;-62
2022/05/13 09:12:08;;;;;;;2.47;2.00;;;19.90;98.00;;;;;;5011435;28;20452;-62
2022/05/13 09:14:41;;;;;;;2.30;1.73;;;19.80;98.00;;;;;;5011440;28;20884;-62
2022/05/13 09:17:22;;;;;;;1.53;1.50;;;19.90;98.00;;;;;;5011187;28;20459;-62
2022/05/13 09:19:55;;;;;;;2.97;1.90;;;20.10;98.00;;;;;;5011417;28;20510;-62
2022/05/13 09:22:32;;;;;;;1.67;1.53;;;20.30;98.00;;;;;;5011475;28;20945;-62
2022/05/13 09:24:59;;;;;;;2.17;2.00;;;20.60;98.00;;;;;;5011402;28;20486;-62
2022/05/13 09:27:26;;;;;;;2.57;1.60;;;20.70;98.00;;;;;;5011449;28;20479;-62
2022/05/13 09:29:54;;;;;;;2.33;2.20;;;20.60;98.00;;;;;;5011929;28;20522;-62
2022/05/13 09:32:26;;;;;;;1.30;1.30;;;20.50;98.00;;;;;;5011326;28;20459;-63
2022/05/13 09:35:00;;;;;;;2.00;1.57;;;20.40;98.00;;;;;;5011342;28;20509;-63
2022/05/13 09:37:37;;;;;;;1.90;1.70;;;20.30;98.00;;;;;;5011593;28;20459;-63
2022/05/13 09:40:11;;;;;;;2.43;2.07;;;20.20;98.00;;;;;;5018318;28;20499;-63
2022/05/13 09:42:40;;;;;;;2.90;1.97;;;20.20;98.00;;;;;;5018914;28;20526;-63
2022/05/13 09:45:22;;;;;;;3.43;1.90;;;20.20;98.00;;;;;;5015894;28;20463;-63
2022/05/13 09:48:13;;;;;;;1.87;1.50;;;20.20;98.00;;;;;;5024506;28;20466;-63
2022/05/13 09:50:43;;;;;;;3.10;1.90;;;20.20;98.00;;;;;;5022898;28;20956;-63
2022/05/13 09:53:33;;;;;;;14.17;2.03;;;20.20;98.00;;;;;;5022137;28;20482;-63
2022/05/13 09:56:02;;;;;;;1.80;1.60;;;20.00;98.00;;;;;;5022548;28;20560;-63
2022/05/13 09:58:35;;;;;;;1.93;1.80;;;19.90;98.00;;;;;;5022127;28;20573;-63
2022/05/13 10:01:05;;;;;;;2.00;1.73;;;19.70;98.00;;;;;;5023368;28;20487;-62
2022/05/13 10:03:36;;;;;;;3.40;1.90;;;19.50;98.00;;;;;;5031831;28;20529;-63
2022/05/13 10:06:19;;;;;;;2.17;1.80;;;19.50;98.00;;;;;;5016577;28;20521;-63
2022/05/13 10:08:55;;;;;;;1.67;1.67;;;19.50;98.00;;;;;;5015252;28;20478;-62
2022/05/13 10:14:30;;;;;;;1.83;1.43;;;19.40;98.00;;;;;;5015170;28;20435;-63
2022/05/13 10:17:01;;;;;;;2.20;1.83;;;19.40;98.00;;;;;;5015102;28;20969;-63
2022/05/13 10:19:35;;;;;;;2.23;1.70;;;19.40;98.00;;;;;;5014972;28;20490;-63
2022/05/13 10:22:11;;;;;;;2.70;1.80;;;19.40;98.00;;;;;;5014093;28;20465;-63
2022/05/13 10:24:52;;;;;;;2.00;1.47;;;19.80;98.00;;;;;;5014982;28;20988;-63
2022/05/13 10:27:27;;;;;;;2.60;1.83;;;20.20;98.00;;;;;;5014958;28;20456;-63
2022/05/13 10:29:58;;;;;;;4.27;1.73;;;20.40;98.00;;;;;;5015153;28;20883;-63
2022/05/13 10:32:30;;;;;;;2.70;2.10;;;20.60;98.00;;;;;;5014964;28;20460;-63
2022/05/13 10:35:01;;;;;;;2.00;1.83;;;20.50;98.00;;;;;;5015139;28;20532;-63
2022/05/13 10:37:34;;;;;;;4.03;2.67;;;20.40;98.00;;;;;;5015002;28;20459;-63
2022/05/13 10:40:08;;;;;;;1.50;1.40;;;20.50;98.00;;;;;;5014858;28;20522;-62
2022/05/13 10:42:40;;;;;;;6.93;2.07;;;20.60;98.00;;;;;;5014784;28;20444;-63
2022/05/13 10:45:15;;;;;;;3.50;2.10;;;20.80;98.00;;;;;;5015075;28;20672;-63
2022/05/13 10:47:47;;;;;;;2.03;1.70;;;21.10;98.00;;;;;;5014742;28;20953;-63
2022/05/13 10:50:18;;;;;;;1.83;1.60;;;21.40;98.00;;;;;;5014370;28;20522;-63
2022/05/13 10:52:54;;;;;;;3.37;2.10;;;21.40;98.00;;;;;;5014488;28;20487;-63
2022/05/13 10:55:36;;;;;;;5.00;1.80;;;21.40;98.00;;;;;;5014479;28;20463;-63
2022/05/13 10:58:26;;;;;;;2.37;1.60;;;21.40;98.00;;;;;;5014397;28;20970;-64
2022/05/13 11:00:59;;;;;;;2.03;1.60;;;21.50;98.00;;;;;;5014187;28;20488;-63
2022/05/13 11:03:35;;;;;;;3.33;2.27;;;21.50;98.00;;;;;;5011964;28;20452;-63
2022/05/13 11:06:16;;;;;;;1.70;1.47;;;21.30;97.50;;;;;;5013971;28;20459;-63
2022/05/13 11:08:52;;;;;;;2.10;1.80;;;21.10;95.80;;;;;;5014534;28;20456;-62
2022/05/13 11:11:36;;;;;;;3.10;1.77;;;20.80;98.00;;;;;;5014161;28;20460;-63
2022/05/13 11:14:15;;;;;;;2.33;1.60;;;20.60;98.00;;;;;;5014074;28;20465;-63
2022/05/13 11:16:51;;;;;;;2.87;2.20;;;20.60;98.00;;;;;;5013834;28;20463;-61
2022/05/13 11:19:27;;;;;;;2.03;1.60;;;20.70;98.00;;;;;;5013837;28;21058;-62
2022/05/13 11:22:01;;;;;;;2.10;1.80;;;20.90;98.00;;;;;;5013896;28;20463;-63
2022/05/13 11:27:38;;;;;;;2.47;1.60;;;21.30;98.00;;;;;;5013816;28;20439;-63
2022/05/13 11:30:10;;;;;;;2.93;2.37;;;21.40;98.00;;;;;;5013971;28;20465;-63
2022/05/13 11:32:46;;;;;;;5.50;2.20;;;21.60;98.00;;;;;;5013645;28;20459;-63
2022/05/13 11:35:34;;;;;;;2.30;2.07;;;21.70;98.00;;;;;;5013863;28;20463;-63
2022/05/13 11:38:05;;;;;;;3.83;2.57;;;21.80;98.00;;;;;;5014046;28;20456;-63
2022/05/13 11:40:41;;;;;;;3.30;2.23;;;21.70;96.30;;;;;;5013726;28;20912;-63
2022/05/13 11:43:26;;;;;;;4.13;2.00;;;21.80;98.00;;;;;;5013715;28;20561;-63
2022/05/13 11:46:30;;;;;;;5.33;2.50;;;21.70;98.00;;;;;;5013247;28;20458;-63
2022/05/13 11:49:05;;;;;;;2.97;2.10;;;21.50;97.20;;;;;;5013013;28;20486;-63
2022/05/13 11:51:35;;;;;;;4.00;2.20;;;21.30;98.00;;;;;;5013158;28;20468;-63
2022/05/13 11:54:18;;;;;;;2.83;2.10;;;21.30;98.00;;;;;;5013213;28;20463;-63
2022/05/13 11:56:46;;;;;;;3.40;2.07;;;21.40;98.00;;;;;;5013018;28;20525;-63
2022/05/13 11:59:46;;;;;;;4.57;2.40;;;21.20;97.40;;;;;;5013304;28;20490;-63
2022/05/13 12:02:16;;;;;;;2.67;1.80;;;21.40;98.00;;;;;;5013194;28;20886;-63
2022/05/13 12:05:07;;;;;;;2.87;2.20;;;21.60;98.00;;;;;;5013259;28;20459;-63
2022/05/13 12:07:49;;;;;;;3.10;2.20;;;22.00;98.00;;;;;;4995582;28;20468;-63
2022/05/13 12:10:20;;;;;;;3.30;2.23;;;22.30;96.20;;;;;;5012888;28;20841;-63
2022/05/13 12:12:57;;;;;;;3.53;2.33;;;22.60;95.30;;;;;;5013110;28;20465;-62
2022/05/13 12:15:48;;;;;;;2.70;2.20;;;22.70;95.10;;;;;;5012725;28;21140;-63
2022/05/13 12:18:25;;;;;;;4.67;2.53;;;22.80;93.80;;;;;;5010023;28;20459;-62
2022/05/13 12:20:59;;;;;;;2.83;2.20;;;23.10;95.50;;;;;;5012883;28;20487;-62
2022/05/13 12:23:31;;;;;;;3.87;2.53;;;23.30;93.90;;;;;;5011996;28;20459;-63
2022/05/13 12:26:01;;;;;;;2.00;1.90;;;23.40;92.10;;;;;;5013005;28;20513;-62
2022/05/13 12:28:41;;;;;;;2.50;2.00;;;23.90;93.40;;;;;;5012668;28;20464;-62
2022/05/13 12:31:34;;;;;;;3.60;2.37;;;24.50;90.80;;;;;;5011645;28;20463;-62
2022/05/13 12:39:46;;;;;;;3.30;2.20;;;24.30;89.50;;;;;;5012699;28;20483;-62
2022/05/13 12:42:14;;;;;;;3.20;2.37;;;23.90;90.20;;;;;;5012743;28;20456;-62
2022/05/13 12:44:59;;;;;;;2.60;1.90;;;23.90;92.30;;;;;;5012547;28;20480;-62
2022/05/13 12:47:30;;;;;;;2.97;2.10;;;23.90;91.40;;;;;;5012530;28;20459;-62
2022/05/13 12:50:00;;;;;;;5.37;2.57;;;24.40;92.80;;;;;;5012631;28;20456;-62
2022/05/13 12:52:42;;;;;;;4.40;2.33;;;24.90;89.40;;;;;;5012373;28;20459;-62
2022/05/13 12:55:18;;;;;;;2.43;1.80;;;25.30;88.60;;;;;;5012225;28;20467;-63
2022/05/13 12:57:48;;;;;;;5.17;2.90;;;25.50;88.40;;;;;;5011125;28;20474;-62
2022/05/13 13:00:19;;;;;;;3.73;2.30;;;25.30;87.40;;;;;;5012098;28;20578;-62
2022/05/13 13:02:52;;;;;;;3.10;2.33;;;25.10;85.70;;;;;;5012093;28;20459;-62
2022/05/13 13:05:24;;;;;;;2.77;2.10;;;25.50;85.60;;;;;;5012292;28;20455;-62
2022/05/13 13:07:54;;;;;;;2.90;2.23;;;25.50;85.80;;;;;;5011882;28;20467;-62
2022/05/13 13:10:22;;;;;;;2.80;2.13;;;25.30;86.30;;;;;;5012121;28;20462;-62
2022/05/13 13:13:01;;;;;;;2.70;2.17;;;25.20;86.80;;;;;;5012268;28;20455;-62
2022/05/13 13:15:33;;;;;;;2.33;1.87;;;25.20;87.90;;;;;;5011964;28;20499;-62
2022/05/13 13:18:05;;;;;;;2.90;2.17;;;25.60;87.80;;;;;;5012313;28;20455;-62
2022/05/13 13:20:33;;;;;;;3.63;2.20;;;25.80;85.80;;;;;;5011846;28;20488;-62
2022/05/13 13:23:03;;;;;;;2.90;2.20;;;25.40;85.80;;;;;;5012022;28;20463;-62
2022/05/13 13:25:32;;;;;;;2.90;2.20;;;24.90;86.50;;;;;;5013042;28;20463;-62
2022/05/13 13:28:02;;;;;;;5.10;2.60;;;24.50;87.40;;;;;;5015058;28;20952;-62
2022/05/13 13:30:30;;;;;;;2.67;1.83;;;24.50;88.60;;;;;;5015978;28;20459;-62
2022/05/13 13:32:57;;;;;;;2.73;2.23;;;24.70;89.10;;;;;;5014733;28;20491;-62
2022/05/13 13:35:32;;;;;;;2.67;2.20;;;25.20;87.00;;;;;;5016143;28;20828;-62
2022/05/13 13:38:08;;;;;;;2.60;2.10;;;25.20;84.30;;;;;;5014854;28;20465;-63